Time;durP1;ratioP1;P1;durP2;ratioP2;P2;SDS_P1;SDS_P2;PMS_P1;PMS_P2;Temp;Humidity;BMP_temperature;BMP_pressure;BME280_temperature;BME280_humidity;BME280_pressure;Samples;Min_cycle;Max_cycle;Signal;HPM_P1;HPM_P2
2021/01/19 00:04:19;;;;;;;8.40;3.47;;;2.50;84.20;;;;;;10041848;28;20423;-60
2021/01/19 00:09:10;;;;;;;6.63;3.80;;;2.50;84.40;;;;;;10046356;28;20017;-61
2021/01/19 00:14:00;;;;;;;7.10;3.67;;;2.40;84.30;;;;;;10041317;28;20270;-61
2021/01/19 00:18:51;;;;;;;6.85;3.83;;;2.40;84.50;;;;;;10043203;28;20042;-61
2021/01/19 00:23:41;;;;;;;8.73;3.63;;;2.30;84.40;;;;;;10041351;28;20043;-60
2021/01/19 00:28:32;;;;;;;6.78;4.10;;;2.40;84.40;;;;;;10039644;28;20628;-60
2021/01/19 00:33:22;;;;;;;12.68;4.38;;;2.30;84.50;;;;;;10038760;28;20091;-60
2021/01/19 00:38:13;;;;;;;7.25;4.00;;;2.30;84.60;;;;;;10053055;28;20030;-61
2021/01/19 00:43:04;;;;;;;6.43;3.15;;;2.30;84.70;;;;;;10040154;28;20081;-61
2021/01/19 00:47:54;;;;;;;10.02;3.97;;;2.30;85.40;;;;;;10039812;28;20291;-62
2021/01/19 00:52:45;;;;;;;9.15;4.35;;;2.30;85.10;;;;;;10038881;28;20026;-60
2021/01/19 00:57:36;;;;;;;8.07;3.45;;;2.40;84.90;;;;;;10033913;28;20456;-61
2021/01/19 01:02:27;;;;;;;7.03;3.50;;;2.40;85.00;;;;;;10045489;28;20213;-60
2021/01/19 01:07:18;;;;;;;7.55;3.33;;;2.50;85.10;;;;;;10040464;28;20045;-62
2021/01/19 01:12:08;;;;;;;8.13;3.28;;;2.50;85.50;;;;;;10055688;28;20017;-61
2021/01/19 01:16:59;;;;;;;4.53;3.03;;;2.50;85.20;;;;;;10028595;28;20420;-61
2021/01/19 01:21:50;;;;;;;7.88;3.03;;;2.60;85.30;;;;;;10040270;28;20041;-60
2021/01/19 01:26:40;;;;;;;5.13;2.90;;;2.60;85.10;;;;;;10027791;28;20026;-61
2021/01/19 01:31:32;;;;;;;6.28;3.17;;;2.60;85.00;;;;;;10051143;28;20107;-60
2021/01/19 01:36:23;;;;;;;5.95;3.10;;;2.60;85.00;;;;;;10046016;28;20045;-60
2021/01/19 01:41:15;;;;;;;6.15;2.85;;;2.50;84.80;;;;;;10031792;28;20113;-60
2021/01/19 01:46:08;;;;;;;3.95;2.13;;;2.50;84.80;;;;;;10036223;28;20128;-60
2021/01/19 01:50:58;;;;;;;4.97;2.35;;;2.50;85.00;;;;;;10042651;28;20037;-60
2021/01/19 01:55:50;;;;;;;3.67;2.30;;;2.40;84.80;;;;;;10041491;28;20029;-60
2021/01/19 02:00:40;;;;;;;2.40;1.83;;;2.50;84.80;;;;;;10033288;28;20022;-60
2021/01/19 02:05:31;;;;;;;4.10;2.63;;;2.40;84.80;;;;;;10039314;28;20030;-61
2021/01/19 02:10:52;;;;;;;3.88;2.03;;;2.40;84.30;;;;;;10032703;28;20040;-59
2021/01/19 02:15:51;;;;;;;4.50;1.92;;;2.30;84.10;;;;;;10041002;28;20037;-59
2021/01/19 02:20:56;;;;;;;4.18;1.95;;;2.30;84.00;;;;;;10031637;28;20026;-60
2021/01/19 02:26:05;;;;;;;3.10;1.98;;;2.20;84.50;;;;;;10039722;28;20045;-61
2021/01/19 02:31:10;;;;;;;5.00;2.20;;;2.10;83.90;;;;;;10036646;28;20034;-60
2021/01/19 02:36:16;;;;;;;4.57;2.38;;;2.10;83.90;;;;;;10040075;28;20503;-60
2021/01/19 02:41:07;;;;;;;4.70;2.37;;;2.10;83.60;;;;;;10034406;28;20040;-61
2021/01/19 02:45:58;;;;;;;6.72;2.38;;;2.10;83.70;;;;;;10037767;28;20121;-61
2021/01/19 02:50:49;;;;;;;5.18;2.00;;;2.10;83.70;;;;;;10030259;28;20108;-60
2021/01/19 02:55:42;;;;;;;3.90;2.40;;;2.10;83.50;;;;;;10034522;28;20033;-60
2021/01/19 03:01:08;;;;;;;4.10;2.42;;;2.00;83.60;;;;;;10035793;28;20066;-60
2021/01/19 03:06:05;;;;;;;4.47;2.20;;;2.10;83.50;;;;;;10037379;28;20543;-60
2021/01/19 03:10:57;;;;;;;2.80;1.77;;;2.20;83.30;;;;;;10043559;28;20060;-60
2021/01/19 03:15:47;;;;;;;4.28;1.70;;;2.20;83.30;;;;;;10046150;28;20629;-60
2021/01/19 03:20:38;;;;;;;3.65;1.73;;;2.20;83.20;;;;;;10045298;28;20125;-59
2021/01/19 03:25:29;;;;;;;1.95;1.33;;;2.20;83.10;;;;;;10042379;28;20116;-61
2021/01/19 03:30:19;;;;;;;2.60;1.73;;;2.20;83.20;;;;;;10039134;28;20144;-60
2021/01/19 03:35:10;;;;;;;4.97;1.67;;;2.20;82.90;;;;;;10043918;28;20030;-61
2021/01/19 03:40:03;;;;;;;2.45;1.38;;;2.20;82.80;;;;;;10055386;28;20121;-61
2021/01/19 03:44:54;;;;;;;2.80;1.58;;;2.30;82.80;;;;;;10045318;28;20040;-60
2021/01/19 03:49:44;;;;;;;6.28;1.33;;;2.30;82.60;;;;;;10043136;28;20404;-60
2021/01/19 03:54:35;;;;;;;4.63;2.08;;;2.30;82.40;;;;;;10030192;28;20144;-60
2021/01/19 03:59:26;;;;;;;2.55;1.15;;;2.30;82.30;;;;;;10041387;28;20030;-60
2021/01/19 04:04:17;;;;;;;3.40;1.30;;;2.20;82.30;;;;;;10046340;28;20486;-60
2021/01/19 04:09:07;;;;;;;7.13;1.55;;;2.20;82.50;;;;;;10045980;28;20108;-60
2021/01/19 04:13:58;;;;;;;2.03;1.48;;;2.20;82.30;;;;;;10038090;28;20033;-59
2021/01/19 04:18:49;;;;;;;4.13;1.67;;;2.20;82.30;;;;;;10042211;28;20041;-60
2021/01/19 04:23:39;;;;;;;5.80;1.58;;;2.30;82.20;;;;;;10037763;28;20049;-61
2021/01/19 04:28:30;;;;;;;3.13;2.05;;;2.30;82.20;;;;;;10038879;28;20468;-61
2021/01/19 04:33:20;;;;;;;3.67;1.20;;;2.30;81.90;;;;;;10042872;28;20030;-61
2021/01/19 04:38:11;;;;;;;2.00;1.63;;;2.30;81.80;;;;;;10054917;28;20029;-60
2021/01/19 04:43:03;;;;;;;2.58;1.35;;;2.30;81.90;;;;;;10035050;28;20076;-61
2021/01/19 04:47:55;;;;;;;2.75;1.27;;;2.30;82.20;;;;;;10044775;28;20034;-60
2021/01/19 04:52:46;;;;;;;2.45;1.73;;;2.30;82.00;;;;;;10039613;28;20505;-60
2021/01/19 04:57:39;;;;;;;2.42;1.33;;;2.30;82.00;;;;;;10039631;28;20735;-60
2021/01/19 05:02:45;;;;;;;1.77;1.00;;;2.40;81.90;;;;;;10040389;28;20062;-60
2021/01/19 05:07:43;;;;;;;2.53;1.02;;;2.40;81.80;;;;;;10041657;28;20018;-61
2021/01/19 05:12:44;;;;;;;2.13;1.45;;;2.40;81.40;;;;;;10031966;28;20084;-61
2021/01/19 05:17:35;;;;;;;1.42;1.00;;;2.40;81.30;;;;;;10045471;28;20483;-62
2021/01/19 05:22:25;;;;;;;2.63;0.93;;;2.40;81.40;;;;;;10027680;28;20044;-61
2021/01/19 05:27:16;;;;;;;3.60;1.27;;;2.40;81.30;;;;;;10044722;28;20034;-61
2021/01/19 05:32:07;;;;;;;1.73;0.95;;;2.50;81.30;;;;;;10038108;28;20120;-60
2021/01/19 05:36:57;;;;;;;3.15;1.30;;;2.40;80.80;;;;;;10037976;28;20026;-60
2021/01/19 05:41:52;;;;;;;2.53;1.42;;;2.50;80.80;;;;;;10036138;28;20022;-61
2021/01/19 05:46:53;;;;;;;1.25;0.98;;;2.50;80.60;;;;;;10039172;28;20676;-61
2021/01/19 05:51:46;;;;;;;3.90;1.10;;;2.50;80.30;;;;;;10041203;28;20608;-59
2021/01/19 05:56:37;;;;;;;2.47;1.17;;;2.50;80.00;;;;;;10038361;28;20041;-60
2021/01/19 06:01:32;;;;;;;3.35;1.00;;;2.40;80.00;;;;;;10040907;28;20033;-61
2021/01/19 06:06:25;;;;;;;2.40;1.03;;;2.50;79.90;;;;;;10029815;28;20261;-64
2021/01/19 06:11:16;;;;;;;1.30;0.80;;;2.50;80.00;;;;;;10041900;28;20087;-61
2021/01/19 06:16:10;;;;;;;2.53;0.98;;;2.50;79.90;;;;;;10034161;28;20058;-60
2021/01/19 06:21:00;;;;;;;2.08;1.15;;;2.50;79.70;;;;;;10043687;28;20063;-60
2021/01/19 06:25:51;;;;;;;2.70;0.80;;;2.50;79.70;;;;;;10035303;28;20883;-60
2021/01/19 06:30:42;;;;;;;1.98;0.85;;;2.50;79.60;;;;;;10040290;28;20484;-59
2021/01/19 06:35:40;;;;;;;3.65;1.08;;;2.50;79.60;;;;;;10031604;28;20034;-62
2021/01/19 06:40:34;;;;;;;1.92;0.90;;;2.50;79.40;;;;;;10037928;28;20065;-61
2021/01/19 06:45:26;;;;;;;2.58;1.10;;;2.50;79.30;;;;;;10030736;28;20060;-61
2021/01/19 06:50:24;;;;;;;1.58;1.00;;;2.40;79.20;;;;;;10052681;28;20099;-61
2021/01/19 06:55:21;;;;;;;2.38;0.80;;;2.40;79.20;;;;;;10036877;28;20544;-61
2021/01/19 07:00:20;;;;;;;1.83;1.17;;;2.40;78.80;;;;;;10030140;28;20173;-61
2021/01/19 07:05:19;;;;;;;1.63;0.85;;;2.30;79.10;;;;;;10043777;28;20037;-61
2021/01/19 07:10:20;;;;;;;2.40;1.67;;;2.30;79.60;;;;;;10029025;28;20031;-59
2021/01/19 07:15:14;;;;;;;1.95;0.80;;;2.30;79.10;;;;;;10040259;28;20044;-61
2021/01/19 07:20:12;;;;;;;3.13;1.10;;;2.30;78.80;;;;;;10032891;28;20515;-60
2021/01/19 07:25:03;;;;;;;5.03;1.50;;;2.20;78.60;;;;;;10043347;28;20041;-59
2021/01/19 07:29:53;;;;;;;5.25;1.30;;;2.30;78.80;;;;;;10039627;28;20652;-61
2021/01/19 07:34:45;;;;;;;2.00;0.90;;;2.30;78.90;;;;;;10037334;28;20120;-60
2021/01/19 07:39:37;;;;;;;1.52;1.10;;;2.30;78.80;;;;;;10040267;28;20025;-61
2021/01/19 07:44:28;;;;;;;3.72;1.20;;;2.40;78.70;;;;;;10050674;28;20052;-61
2021/01/19 07:49:29;;;;;;;4.10;1.48;;;2.40;78.80;;;;;;10030340;28;20479;-61
2021/01/19 07:54:20;;;;;;;1.63;1.13;;;2.40;78.80;;;;;;10034034;28;20036;-62
2021/01/19 07:59:16;;;;;;;4.78;1.17;;;2.40;78.80;;;;;;10034783;28;20105;-60
2021/01/19 08:04:12;;;;;;;2.88;1.30;;;2.50;78.80;;;;;;10048880;28;20049;-61
2021/01/19 08:09:09;;;;;;;1.47;1.10;;;2.40;78.40;;;;;;10047391;28;21531;-60
2021/01/19 08:14:00;;;;;;;2.45;1.38;;;2.50;78.60;;;;;;10051925;28;20437;-61
2021/01/19 08:19:04;;;;;;;2.88;1.05;;;2.60;78.20;;;;;;10041894;28;20623;-60
2021/01/19 08:23:54;;;;;;;4.13;2.15;;;2.70;78.20;;;;;;10035979;28;20398;-62
2021/01/19 08:28:45;;;;;;;1.70;1.10;;;2.80;78.30;;;;;;10040539;28;20040;-60
2021/01/19 08:33:39;;;;;;;2.60;0.98;;;2.90;77.90;;;;;;10046897;28;20029;-60
2021/01/19 08:38:32;;;;;;;3.40;1.13;;;2.80;78.00;;;;;;10046113;28;20029;-61
2021/01/19 08:43:22;;;;;;;1.30;0.95;;;2.90;78.00;;;;;;10043936;28;21595;-59
2021/01/19 08:48:13;;;;;;;4.13;1.23;;;3.00;77.80;;;;;;10040066;28;20029;-61
2021/01/19 08:53:14;;;;;;;1.80;0.95;;;2.90;77.80;;;;;;10039811;28;20040;-62
2021/01/19 08:58:06;;;;;;;1.95;1.25;;;3.10;77.60;;;;;;10031972;28;20029;-60
2021/01/19 09:02:57;;;;;;;4.43;1.33;;;3.20;77.40;;;;;;10037402;28;20045;-60
2021/01/19 09:07:48;;;;;;;4.20;1.10;;;3.20;77.00;;;;;;10041467;28;20045;-60
2021/01/19 09:12:40;;;;;;;1.60;1.02;;;3.30;77.00;;;;;;10039313;28;20060;-61
2021/01/19 09:17:31;;;;;;;2.03;1.15;;;3.40;76.30;;;;;;10040899;28;21244;-61
2021/01/19 09:22:27;;;;;;;1.77;1.20;;;3.50;76.40;;;;;;10060924;28;20136;-60
2021/01/19 09:27:18;;;;;;;1.83;1.00;;;3.50;76.10;;;;;;10041493;28;20502;-61
2021/01/19 09:32:10;;;;;;;4.95;1.30;;;3.60;75.70;;;;;;10039771;28;20035;-59
2021/01/19 09:37:03;;;;;;;3.45;1.35;;;3.60;75.40;;;;;;10039445;28;20033;-59
2021/01/19 09:41:57;;;;;;;3.63;1.15;;;3.70;75.40;;;;;;10046574;28;20033;-62
2021/01/19 09:46:52;;;;;;;4.03;1.20;;;3.70;75.20;;;;;;10041372;28;20099;-61
2021/01/19 09:51:42;;;;;;;4.80;1.50;;;3.70;75.10;;;;;;10044505;28;20025;-72
2021/01/19 09:56:33;;;;;;;2.35;1.50;;;3.80;75.20;;;;;;10042357;28;20034;-61
2021/01/19 10:01:24;;;;;;;3.03;1.27;;;3.80;74.90;;;;;;10042920;28;20099;-60
2021/01/19 10:06:21;;;;;;;2.72;1.95;;;3.90;74.40;;;;;;10037274;28;20053;-61
2021/01/19 10:11:12;;;;;;;4.85;1.63;;;4.00;74.70;;;;;;10040873;28;20033;-60
2021/01/19 10:16:04;;;;;;;5.22;1.98;;;4.10;74.50;;;;;;10041413;28;20179;-59
2021/01/19 10:20:55;;;;;;;3.55;1.35;;;4.30;74.50;;;;;;10035524;28;20037;-60
2021/01/19 10:25:53;;;;;;;2.45;0.95;;;4.40;74.40;;;;;;10050271;28;20041;-61
2021/01/19 10:30:43;;;;;;;3.17;2.13;;;4.50;74.10;;;;;;10044936;28;20024;-60
2021/01/19 10:35:36;;;;;;;5.18;1.73;;;4.50;74.00;;;;;;10041690;28;20435;-60
2021/01/19 10:40:27;;;;;;;2.50;1.70;;;4.60;74.10;;;;;;10036194;28;20032;-60
2021/01/19 10:45:29;;;;;;;2.42;1.60;;;4.60;74.10;;;;;;10044878;28;20046;-59
2021/01/19 10:50:21;;;;;;;5.35;2.05;;;4.50;74.00;;;;;;10034044;28;20025;-60
2021/01/19 10:55:12;;;;;;;7.13;1.60;;;4.40;73.90;;;;;;10042731;28;20217;-59
2021/01/19 11:00:06;;;;;;;3.70;1.67;;;4.50;74.20;;;;;;10039846;28;20025;-59
2021/01/19 11:04:57;;;;;;;3.38;2.13;;;4.40;73.60;;;;;;10034209;28;20051;-59
2021/01/19 11:09:48;;;;;;;3.65;1.83;;;4.40;73.60;;;;;;10035247;28;20113;-59
2021/01/19 11:14:38;;;;;;;4.55;1.77;;;4.30;73.90;;;;;;10041020;28;20025;-61
2021/01/19 11:19:29;;;;;;;2.30;1.25;;;4.20;73.90;;;;;;10047596;28;20499;-61
2021/01/19 11:24:19;;;;;;;2.17;1.60;;;4.10;74.00;;;;;;10032735;28;20044;-62
2021/01/19 11:29:10;;;;;;;3.92;1.92;;;4.20;74.30;;;;;;10038505;28;20100;-61
2021/01/19 11:34:03;;;;;;;3.90;1.02;;;4.20;74.30;;;;;;10034065;28;20136;-61
2021/01/19 11:38:55;;;;;;;4.00;1.48;;;4.10;74.40;;;;;;10043869;28;20071;-60
2021/01/19 11:43:46;;;;;;;6.95;2.53;;;4.30;74.60;;;;;;10047753;28;20048;-60
2021/01/19 11:48:37;;;;;;;3.72;1.80;;;4.30;74.60;;;;;;10042104;28;20021;-61
2021/01/19 11:53:28;;;;;;;3.10;1.67;;;4.40;74.50;;;;;;10061949;28;20033;-61
2021/01/19 11:58:21;;;;;;;7.22;1.80;;;4.60;74.50;;;;;;10047874;28;20029;-62
2021/01/19 12:03:12;;;;;;;2.85;2.03;;;4.80;74.30;;;;;;10040682;28;20112;-62
2021/01/19 12:08:03;;;;;;;2.22;1.23;;;4.80;74.00;;;;;;10048494;28;20160;-61
2021/01/19 12:12:53;;;;;;;2.47;1.92;;;4.90;74.20;;;;;;10039526;28;20029;-60
2021/01/19 12:17:44;;;;;;;3.45;1.15;;;4.90;74.00;;;;;;10048048;28;20049;-61
2021/01/19 12:22:34;;;;;;;1.90;1.40;;;5.00;74.40;;;;;;10043097;28;20538;-61
2021/01/19 12:27:25;;;;;;;6.15;1.77;;;5.00;73.80;;;;;;10035357;28;20052;-60
2021/01/19 12:32:16;;;;;;;2.88;1.35;;;5.10;73.90;;;;;;10040674;28;20080;-60
2021/01/19 12:37:06;;;;;;;5.05;1.80;;;5.20;73.80;;;;;;10047290;28;20025;-61
2021/01/19 12:41:57;;;;;;;5.53;1.58;;;5.10;74.00;;;;;;10043614;28;20056;-61
2021/01/19 12:46:49;;;;;;;2.33;1.23;;;5.00;74.30;;;;;;10047660;28;20025;-61
2021/01/19 12:51:40;;;;;;;1.48;1.15;;;5.10;74.40;;;;;;10045596;28;20578;-60
2021/01/19 12:56:30;;;;;;;2.65;1.77;;;5.10;74.10;;;;;;10042484;28;20149;-60
2021/01/19 13:01:21;;;;;;;4.13;1.60;;;5.10;74.40;;;;;;10051720;28;20549;-61
2021/01/19 13:06:12;;;;;;;3.70;1.50;;;5.10;74.40;;;;;;10042277;28;20329;-61
2021/01/19 13:11:04;;;;;;;4.50;1.77;;;5.10;74.40;;;;;;10046144;28;20044;-61
2021/01/19 13:15:54;;;;;;;3.42;1.38;;;5.20;74.40;;;;;;10038356;28;20038;-60
2021/01/19 13:20:45;;;;;;;2.65;1.38;;;5.10;74.40;;;;;;10047016;28;20483;-60
2021/01/19 13:25:35;;;;;;;2.42;1.50;;;5.20;74.40;;;;;;10040157;28;20045;-60
2021/01/19 13:30:27;;;;;;;4.45;1.50;;;5.20;74.40;;;;;;10046338;28;20017;-60
2021/01/19 13:35:17;;;;;;;2.45;1.10;;;5.20;74.30;;;;;;10045709;28;20439;-60
2021/01/19 13:40:09;;;;;;;2.80;1.83;;;5.30;74.30;;;;;;10035436;28;20057;-60
2021/01/19 13:45:00;;;;;;;2.20;1.33;;;5.30;74.10;;;;;;10041900;28;20041;-62
2021/01/19 13:49:51;;;;;;;2.92;1.20;;;5.30;74.10;;;;;;10044884;28;20439;-59
2021/01/19 13:54:41;;;;;;;2.97;1.45;;;5.30;73.60;;;;;;10035847;28;20029;-60
2021/01/19 13:59:32;;;;;;;2.47;1.25;;;5.30;74.50;;;;;;10047910;28;20064;-59
2021/01/19 14:04:23;;;;;;;5.47;1.80;;;5.40;73.80;;;;;;10034888;28;20890;-59
2021/01/19 14:09:13;;;;;;;1.63;1.15;;;5.40;73.70;;;;;;10043900;28;20029;-59
2021/01/19 14:14:15;;;;;;;2.28;1.15;;;5.30;73.40;;;;;;10034259;28;20132;-61
2021/01/19 14:19:06;;;;;;;2.53;1.05;;;5.30;73.60;;;;;;10042245;28;20058;-60
2021/01/19 14:23:57;;;;;;;2.05;1.15;;;5.30;73.50;;;;;;10033780;28;20100;-60
2021/01/19 14:28:49;;;;;;;3.55;1.83;;;5.20;73.80;;;;;;10039440;28;20755;-59
2021/01/19 14:33:39;;;;;;;1.42;1.10;;;5.30;73.90;;;;;;10031060;28;20037;-60
2021/01/19 14:38:30;;;;;;;2.38;1.05;;;5.20;74.10;;;;;;10036925;28;20120;-59
2021/01/19 14:43:20;;;;;;;2.72;1.02;;;5.20;74.10;;;;;;10037212;28;20045;-60
2021/01/19 14:48:11;;;;;;;2.47;1.45;;;5.10;73.90;;;;;;10035119;28;20109;-59
2021/01/19 14:53:02;;;;;;;2.00;1.63;;;5.20;74.10;;;;;;10036528;28;20447;-61
2021/01/19 14:57:52;;;;;;;1.50;0.95;;;5.20;74.00;;;;;;10033119;28;20041;-60
2021/01/19 15:02:43;;;;;;;1.60;1.13;;;5.20;73.60;;;;;;10042029;28;21097;-60
2021/01/19 15:07:35;;;;;;;4.00;1.20;;;5.20;73.50;;;;;;10041763;28;20036;-60
2021/01/19 15:12:34;;;;;;;1.45;1.15;;;5.30;73.40;;;;;;10042022;28;20025;-60
2021/01/19 15:17:25;;;;;;;2.67;1.20;;;5.30;73.10;;;;;;10037322;28;20423;-61
2021/01/19 15:22:16;;;;;;;3.45;1.13;;;5.40;73.10;;;;;;10042800;28;20686;-61
2021/01/19 15:27:08;;;;;;;2.22;1.27;;;5.50;72.80;;;;;;10038613;28;20140;-59
2021/01/19 15:31:58;;;;;;;4.75;1.27;;;5.50;72.80;;;;;;10039293;28;20029;-59
2021/01/19 15:36:49;;;;;;;3.20;1.10;;;5.50;72.10;;;;;;10040351;28;20061;-59
2021/01/19 15:41:40;;;;;;;2.50;1.58;;;5.60;72.10;;;;;;10041554;28;20745;-59
2021/01/19 15:46:34;;;;;;;2.67;1.10;;;5.60;72.20;;;;;;10039413;28;20282;-60
2021/01/19 15:51:24;;;;;;;3.63;1.33;;;5.60;71.70;;;;;;10033995;28;20109;-60
2021/01/19 15:56:37;;;;;;;3.85;1.05;;;5.60;71.50;;;;;;10038600;28;20402;-61
2021/01/19 16:01:28;;;;;;;1.95;0.98;;;5.60;70.60;;;;;;10039934;28;20025;-60
2021/01/19 16:06:19;;;;;;;1.35;0.98;;;5.60;70.40;;;;;;10039311;28;20099;-61
2021/01/19 16:11:09;;;;;;;1.38;0.90;;;5.60;70.30;;;;;;10038478;28;20441;-60
2021/01/19 16:16:00;;;;;;;1.95;1.08;;;5.60;69.80;;;;;;10029978;28;20575;-61
2021/01/19 16:20:51;;;;;;;1.20;0.95;;;5.60;70.10;;;;;;10040053;28;20025;-61
2021/01/19 16:25:41;;;;;;;2.25;1.25;;;5.60;70.10;;;;;;10041908;28;20041;-62
2021/01/19 16:30:32;;;;;;;2.45;1.30;;;5.60;69.70;;;;;;10041433;28;20037;-60
2021/01/19 16:35:23;;;;;;;1.50;0.90;;;5.60;70.00;;;;;;10043037;28;20025;-60
2021/01/19 16:40:14;;;;;;;3.00;1.15;;;5.60;69.50;;;;;;10045998;28;20201;-60
2021/01/19 16:45:05;;;;;;;2.17;1.05;;;5.60;69.40;;;;;;10033247;28;20582;-61
2021/01/19 16:49:56;;;;;;;4.25;0.95;;;5.50;68.80;;;;;;10042988;28;20029;-60
2021/01/19 16:54:46;;;;;;;2.75;0.98;;;5.60;68.90;;;;;;10035821;28;20488;-59
2021/01/19 16:59:37;;;;;;;2.00;0.68;;;5.60;68.70;;;;;;10043548;28;20022;-61
2021/01/19 17:04:27;;;;;;;1.13;0.75;;;5.70;68.70;;;;;;10044103;28;20037;-60
2021/01/19 17:09:18;;;;;;;3.65;1.50;;;5.70;68.40;;;;;;10046350;28;20310;-61
2021/01/19 17:14:08;;;;;;;1.98;1.27;;;5.60;67.90;;;;;;10036757;28;20050;-61
2021/01/19 17:18:59;;;;;;;1.63;1.10;;;5.60;67.10;;;;;;10039056;28;20045;-67
2021/01/19 17:23:50;;;;;;;3.25;1.67;;;5.60;67.40;;;;;;10037513;28;20128;-60
2021/01/19 17:28:40;;;;;;;2.67;1.52;;;5.60;67.20;;;;;;10046395;28;20029;-62
2021/01/19 17:33:34;;;;;;;4.13;1.60;;;5.60;66.80;;;;;;10041787;28;20041;-61
2021/01/19 17:38:24;;;;;;;2.55;1.42;;;5.50;66.80;;;;;;10041307;28;20083;-60
2021/01/19 17:43:15;;;;;;;2.63;1.60;;;5.50;66.90;;;;;;10034668;28;20043;-61
2021/01/19 17:48:06;;;;;;;3.80;1.67;;;5.50;66.50;;;;;;10038690;28;20427;-60
2021/01/19 17:52:59;;;;;;;2.42;1.55;;;5.40;65.90;;;;;;10041759;28;20091;-61
2021/01/19 17:57:49;;;;;;;3.58;1.77;;;5.40;66.10;;;;;;10052540;28;20056;-60
2021/01/19 18:02:41;;;;;;;2.40;1.73;;;5.30;66.00;;;;;;10039366;28;20044;-61
2021/01/19 18:07:32;;;;;;;1.42;1.27;;;5.40;65.80;;;;;;10007809;28;20056;-62
2021/01/19 18:12:27;;;;;;;3.78;1.23;;;5.40;65.40;;;;;;10011104;28;20033;-60
2021/01/19 18:17:17;;;;;;;2.20;1.17;;;5.30;65.20;;;;;;10013708;28;20053;-63
2021/01/19 18:22:14;;;;;;;2.95;1.20;;;5.40;65.10;;;;;;10012706;28;20033;-65
2021/01/19 18:27:06;;;;;;;3.88;1.70;;;5.30;64.70;;;;;;10013095;28;20742;-58
2021/01/19 18:31:58;;;;;;;3.97;1.58;;;5.30;64.90;;;;;;10013780;28;20033;-62
2021/01/19 18:36:53;;;;;;;2.63;1.98;;;5.30;64.90;;;;;;10011277;28;20045;-62
2021/01/19 18:41:45;;;;;;;2.60;1.67;;;5.30;64.70;;;;;;10012671;28;20060;-61
2021/01/19 18:46:36;;;;;;;3.42;1.63;;;5.30;64.70;;;;;;10011960;28;20029;-63
2021/01/19 18:51:29;;;;;;;7.40;1.55;;;5.40;64.30;;;;;;10014562;28;20026;-60
2021/01/19 18:56:27;;;;;;;3.17;1.70;;;5.30;64.20;;;;;;10011699;28;20120;-62
2021/01/19 19:01:19;;;;;;;2.67;1.42;;;5.30;64.50;;;;;;10011963;28;20036;-61
2021/01/19 19:06:24;;;;;;;4.35;1.80;;;5.30;64.40;;;;;;10013644;28;20201;-61
2021/01/19 19:11:30;;;;;;;3.33;1.88;;;5.30;63.70;;;;;;10010614;28;20298;-61
2021/01/19 19:16:32;;;;;;;1.67;1.15;;;5.40;64.10;;;;;;10011810;28;20054;-60
2021/01/19 19:21:23;;;;;;;2.63;1.15;;;5.40;64.00;;;;;;10013522;28;20041;-61
2021/01/19 19:26:14;;;;;;;3.42;1.58;;;5.40;63.80;;;;;;10011633;28;20111;-61
2021/01/19 19:31:04;;;;;;;2.17;1.27;;;5.40;63.80;;;;;;10016624;28;20053;-61
2021/01/19 19:35:55;;;;;;;2.35;1.73;;;5.40;63.70;;;;;;10016204;28;20130;-61
2021/01/19 19:40:45;;;;;;;1.83;1.10;;;5.40;63.70;;;;;;10016618;28;20051;-61
2021/01/19 19:45:36;;;;;;;1.33;1.10;;;5.50;63.30;;;;;;10015310;28;20052;-60
2021/01/19 19:50:27;;;;;;;4.55;1.00;;;5.50;63.00;;;;;;10016165;28;20396;-60
2021/01/19 19:55:17;;;;;;;3.08;1.67;;;5.60;62.80;;;;;;10018587;28;20044;-62
2021/01/19 20:00:08;;;;;;;1.80;1.20;;;5.60;62.70;;;;;;10023756;28;20426;-61
2021/01/19 20:04:59;;;;;;;3.47;0.98;;;5.60;62.60;;;;;;10022691;28;20541;-60
2021/01/19 20:09:50;;;;;;;1.45;1.05;;;5.60;62.70;;;;;;10022801;28;20259;-62
2021/01/19 20:14:41;;;;;;;2.95;1.23;;;5.50;62.70;;;;;;10021774;28;21419;-62
2021/01/19 20:19:31;;;;;;;2.03;1.15;;;5.50;62.80;;;;;;10017160;28;20057;-65
2021/01/19 20:24:22;;;;;;;1.88;1.25;;;5.50;62.40;;;;;;10020307;28;20140;-60
2021/01/19 20:29:14;;;;;;;2.55;1.15;;;5.50;62.90;;;;;;10021273;28;20034;-59
2021/01/19 20:34:06;;;;;;;3.33;1.08;;;5.50;62.60;;;;;;10020586;28;20041;-61
2021/01/19 20:38:57;;;;;;;2.40;0.90;;;5.50;62.60;;;;;;10022799;28;20090;-61
2021/01/19 20:43:50;;;;;;;1.52;1.00;;;5.40;62.60;;;;;;10021335;28;20095;-62
2021/01/19 20:48:41;;;;;;;1.83;0.95;;;5.40;62.80;;;;;;10021936;28;20029;-61
2021/01/19 20:53:35;;;;;;;2.35;1.15;;;5.30;62.90;;;;;;10021945;28;20040;-61
2021/01/19 20:58:26;;;;;;;1.20;0.80;;;5.30;62.80;;;;;;10022108;28;20041;-61
2021/01/19 21:03:16;;;;;;;1.88;0.88;;;5.30;63.00;;;;;;10020901;28;20045;-62
2021/01/19 21:08:07;;;;;;;2.13;1.40;;;5.30;62.90;;;;;;10021206;28;20030;-65
2021/01/19 21:12:58;;;;;;;2.95;1.27;;;5.20;63.00;;;;;;10018187;28;20037;-62
2021/01/19 21:17:49;;;;;;;3.35;1.35;;;5.10;63.00;;;;;;10021576;28;20050;-62
2021/01/19 21:22:40;;;;;;;2.65;1.45;;;5.10;63.10;;;;;;10022104;28;20096;-63
2021/01/19 21:27:30;;;;;;;3.03;1.50;;;5.10;63.20;;;;;;10019187;28;20036;-63
2021/01/19 21:32:21;;;;;;;1.60;1.00;;;5.00;63.30;;;;;;10020707;28;20533;-59
2021/01/19 21:37:11;;;;;;;2.35;1.10;;;5.00;63.30;;;;;;10005627;28;20373;-60
2021/01/19 21:42:03;;;;;;;4.00;1.38;;;5.00;63.40;;;;;;10013377;28;20048;-62
2021/01/19 21:46:54;;;;;;;3.50;1.20;;;5.00;63.40;;;;;;10001781;28;20029;-60
2021/01/19 21:51:44;;;;;;;1.45;0.98;;;5.00;63.30;;;;;;10019583;28;20479;-62
2021/01/19 21:56:35;;;;;;;1.98;1.42;;;4.90;63.40;;;;;;10018325;28;20427;-62
2021/01/19 22:01:25;;;;;;;2.60;1.52;;;4.90;63.50;;;;;;10021152;28;20037;-60
2021/01/19 22:06:16;;;;;;;2.00;1.33;;;4.80;63.60;;;;;;10014265;28;20139;-60
2021/01/19 22:11:07;;;;;;;2.30;1.40;;;4.80;63.70;;;;;;10018789;28;20036;-61
2021/01/19 22:15:57;;;;;;;2.50;1.45;;;4.80;63.70;;;;;;10017949;28;20044;-60
2021/01/19 22:20:48;;;;;;;2.60;1.23;;;4.80;63.80;;;;;;10016664;28;20079;-61
2021/01/19 22:25:38;;;;;;;2.28;1.50;;;4.80;64.00;;;;;;10017811;28;20891;-60
2021/01/19 22:30:29;;;;;;;2.45;1.60;;;4.70;64.10;;;;;;10016278;28;20036;-60
2021/01/19 22:35:20;;;;;;;3.97;1.48;;;4.70;64.10;;;;;;10030205;28;20044;-60
2021/01/19 22:40:11;;;;;;;3.78;1.60;;;4.80;64.10;;;;;;10014870;28;20412;-60
2021/01/19 22:45:02;;;;;;;2.10;1.40;;;4.90;64.00;;;;;;10016192;28;20061;-60
2021/01/19 22:49:52;;;;;;;1.83;1.10;;;4.90;63.90;;;;;;10014205;28;20113;-61
2021/01/19 22:54:43;;;;;;;2.92;1.35;;;4.90;63.90;;;;;;10014793;28;20048;-60
2021/01/19 22:59:34;;;;;;;1.85;1.40;;;4.90;63.90;;;;;;10017324;28;20660;-60
2021/01/19 23:04:24;;;;;;;2.20;1.80;;;5.00;63.90;;;;;;10014690;28;20033;-59
2021/01/19 23:09:15;;;;;;;1.52;0.98;;;5.00;63.90;;;;;;10015859;28;20041;-61
2021/01/19 23:14:05;;;;;;;2.78;1.23;;;5.10;63.80;;;;;;10014454;28;20045;-61
2021/01/19 23:18:56;;;;;;;1.50;0.95;;;5.20;63.70;;;;;;10014904;28;20049;-60
2021/01/19 23:23:47;;;;;;;2.15;1.15;;;5.10;64.30;;;;;;10015014;28;20515;-61
2021/01/19 23:28:38;;;;;;;1.42;0.95;;;5.10;63.70;;;;;;10014461;28;20112;-60
2021/01/19 23:33:28;;;;;;;1.67;1.45;;;5.10;63.90;;;;;;10023166;28;20545;-60
2021/01/19 23:38:19;;;;;;;2.88;1.67;;;5.10;63.80;;;;;;10023455;28;20025;-60
2021/01/19 23:43:09;;;;;;;2.08;1.23;;;5.10;64.00;;;;;;10022217;28;20046;-59
2021/01/19 23:48:00;;;;;;;2.10;1.23;;;5.00;63.90;;;;;;10023386;28;20037;-59
2021/01/19 23:52:50;;;;;;;3.45;1.35;;;5.00;64.00;;;;;;10023262;28;20091;-59
2021/01/19 23:57:42;;;;;;;2.60;1.45;;;4.90;64.10;;;;;;10021913;28;20064;-59
